Time;durP1;ratioP1;P1;durP2;ratioP2;P2;SDS_P1;SDS_P2;PMS_P1;PMS_P2;Temp;Humidity;BMP_temperature;BMP_pressure;BME280_temperature;BME280_humidity;BME280_pressure;Samples;Min_cycle;Max_cycle;Signal;HPM_P1;HPM_P2
2022/10/18 00:01:54;;;;;;;10.07;8.40;;;14.90;99.90;;;;;;6120373;23;20464;-77
2022/10/18 00:04:22;;;;;;;11.67;9.47;;;14.90;99.90;;;;;;6121948;23;20440;-76
2022/10/18 00:06:49;;;;;;;10.03;9.10;;;14.90;99.90;;;;;;6127181;23;20444;-78
2022/10/18 00:09:17;;;;;;;12.93;9.73;;;14.80;99.90;;;;;;6119876;23;20917;-77
2022/10/18 00:11:44;;;;;;;9.40;8.17;;;14.80;99.90;;;;;;6124220;23;20457;-77
2022/10/18 00:14:12;;;;;;;9.10;8.17;;;14.70;99.90;;;;;;6128443;23;20456;-77
2022/10/18 00:16:39;;;;;;;9.20;7.90;;;14.80;99.90;;;;;;6124982;23;20576;-77
2022/10/18 00:19:06;;;;;;;10.73;8.90;;;14.70;99.90;;;;;;6126614;23;20518;-77
2022/10/18 00:21:34;;;;;;;10.80;8.00;;;14.70;99.90;;;;;;6118187;23;20536;-77
2022/10/18 00:24:02;;;;;;;13.40;8.30;;;14.70;99.90;;;;;;6121628;23;20451;-77
2022/10/18 00:26:30;;;;;;;8.70;7.77;;;14.70;99.90;;;;;;6127794;23;20459;-77
2022/10/18 00:28:59;;;;;;;10.97;8.37;;;14.70;99.90;;;;;;6129225;23;20444;-77
2022/10/18 00:31:28;;;;;;;10.00;8.60;;;14.70;99.90;;;;;;6119432;23;20461;-77
2022/10/18 00:33:57;;;;;;;9.10;8.40;;;14.80;99.90;;;;;;6119154;23;20456;-77
2022/10/18 00:36:26;;;;;;;13.77;9.30;;;14.70;99.90;;;;;;6119294;23;20879;-77
2022/10/18 00:38:55;;;;;;;11.77;8.90;;;14.60;99.90;;;;;;6125933;23;20467;-77
2022/10/18 00:41:25;;;;;;;10.50;8.13;;;14.60;99.90;;;;;;6118994;23;20445;-75
2022/10/18 00:43:58;;;;;;;9.40;8.40;;;14.70;99.90;;;;;;6118266;23;20444;-77
2022/10/18 00:46:28;;;;;;;9.97;9.00;;;14.60;99.90;;;;;;6117299;23;20547;-77
2022/10/18 00:48:57;;;;;;;9.03;8.13;;;14.60;99.90;;;;;;6125863;23;20440;-77
2022/10/18 00:51:27;;;;;;;8.20;7.40;;;14.60;99.90;;;;;;6121880;23;20807;-77
2022/10/18 00:53:56;;;;;;;11.17;7.90;;;14.60;99.90;;;;;;6142003;23;20433;-77
2022/10/18 00:56:23;;;;;;;9.40;8.50;;;14.60;99.90;;;;;;6124536;23;20539;-77
2022/10/18 00:58:52;;;;;;;8.73;7.83;;;14.60;99.90;;;;;;6119390;23;20521;-77
2022/10/18 01:01:19;;;;;;;8.63;7.83;;;14.60;99.90;;;;;;6120152;23;20463;-77
2022/10/18 01:03:46;;;;;;;9.43;7.10;;;14.60;99.90;;;;;;6124268;23;20450;-77
2022/10/18 01:06:13;;;;;;;9.23;7.20;;;14.60;99.90;;;;;;6121007;23;20432;-77
2022/10/18 01:08:49;;;;;;;7.27;6.43;;;14.60;99.90;;;;;;6120735;23;20439;-77
2022/10/18 01:11:42;;;;;;;8.33;7.50;;;14.70;99.90;;;;;;6123966;23;20515;-77
2022/10/18 01:14:21;;;;;;;8.90;7.13;;;14.70;99.90;;;;;;6120690;23;20426;-77
2022/10/18 01:16:55;;;;;;;11.03;7.23;;;14.70;99.90;;;;;;6130841;23;20544;-77
2022/10/18 01:19:43;;;;;;;7.80;7.00;;;14.70;99.90;;;;;;6122377;23;20830;-77
2022/10/18 01:22:17;;;;;;;8.93;6.97;;;14.80;99.90;;;;;;6116245;23;20532;-77
2022/10/18 01:25:01;;;;;;;8.60;7.33;;;14.80;99.90;;;;;;6126797;23;20805;-77
2022/10/18 01:27:40;;;;;;;7.63;6.40;;;14.80;99.90;;;;;;6124394;23;20875;-77
2022/10/18 01:30:41;;;;;;;8.03;6.57;;;14.80;99.90;;;;;;6117871;23;20477;-76
2022/10/18 01:33:17;;;;;;;7.63;7.00;;;14.80;99.90;;;;;;6120958;23;20478;-77
2022/10/18 01:35:50;;;;;;;7.67;6.87;;;14.80;99.90;;;;;;6123953;23;20463;-77
2022/10/18 01:38:19;;;;;;;9.60;6.50;;;14.80;99.90;;;;;;6118188;23;20526;-77
2022/10/18 01:40:50;;;;;;;8.77;7.00;;;14.80;99.90;;;;;;6103922;23;20853;-77
2022/10/18 01:43:19;;;;;;;8.00;6.50;;;14.90;99.90;;;;;;6119024;23;20528;-74
2022/10/18 01:45:49;;;;;;;8.00;6.50;;;14.90;99.90;;;;;;6122031;23;20472;-75
2022/10/18 01:48:17;;;;;;;11.63;6.60;;;15.00;99.90;;;;;;6112316;23;20422;-74
2022/10/18 01:50:44;;;;;;;7.93;6.77;;;15.00;99.90;;;;;;6117309;23;20446;-75
2022/10/18 01:53:23;;;;;;;6.97;6.20;;;15.00;99.90;;;;;;6112973;23;20475;-75
2022/10/18 01:55:57;;;;;;;8.07;6.23;;;15.10;99.90;;;;;;6118303;23;20448;-77
2022/10/18 01:58:31;;;;;;;8.77;6.73;;;15.00;99.90;;;;;;6116521;23;21024;-77
2022/10/18 02:01:06;;;;;;;6.53;6.03;;;15.00;99.90;;;;;;6113403;23;20520;-77
2022/10/18 02:03:37;;;;;;;7.30;6.30;;;15.00;99.90;;;;;;6117493;23;20498;-77
2022/10/18 02:06:09;;;;;;;8.67;6.83;;;15.00;99.90;;;;;;6123691;23;20513;-77
2022/10/18 02:08:42;;;;;;;8.20;7.10;;;15.00;99.90;;;;;;6113561;23;20501;-77
2022/10/18 02:11:12;;;;;;;8.10;6.40;;;15.00;99.90;;;;;;6121881;23;20487;-77
2022/10/18 02:13:44;;;;;;;8.13;6.50;;;15.00;99.90;;;;;;6125145;23;21010;-77
2022/10/18 02:16:17;;;;;;;7.13;6.50;;;15.00;99.90;;;;;;6128350;23;20511;-77
2022/10/18 02:18:50;;;;;;;9.83;6.07;;;15.00;99.90;;;;;;6125535;23;20448;-77
2022/10/18 02:21:21;;;;;;;7.67;6.90;;;15.10;99.90;;;;;;6120984;23;20479;-74
2022/10/18 02:23:49;;;;;;;10.23;7.20;;;15.10;99.90;;;;;;6136347;23;20555;-77
2022/10/18 02:26:16;;;;;;;7.47;6.60;;;15.10;99.90;;;;;;6130949;23;20520;-76
2022/10/18 02:28:45;;;;;;;9.10;7.10;;;15.10;99.90;;;;;;6116897;23;20489;-76
2022/10/18 02:31:18;;;;;;;8.13;7.27;;;15.10;99.90;;;;;;6119181;23;20445;-76
2022/10/18 02:33:51;;;;;;;9.40;6.97;;;15.10;99.90;;;;;;6121486;23;20575;-76
2022/10/18 02:36:23;;;;;;;10.33;6.50;;;15.00;99.90;;;;;;6128542;23;20428;-76
2022/10/18 02:38:54;;;;;;;8.97;6.70;;;14.90;99.90;;;;;;6117134;23;20520;-76
2022/10/18 02:41:25;;;;;;;6.80;6.07;;;14.90;99.90;;;;;;6121185;23;20444;-76
2022/10/18 02:43:53;;;;;;;7.27;6.40;;;14.90;99.90;;;;;;6122728;23;20451;-76
2022/10/18 02:46:21;;;;;;;9.90;7.03;;;14.90;99.90;;;;;;6117018;23;20520;-76
2022/10/18 02:48:49;;;;;;;9.60;7.00;;;14.90;99.90;;;;;;6116420;23;20463;-76
2022/10/18 02:51:16;;;;;;;9.13;7.37;;;14.90;99.90;;;;;;6130142;23;20519;-75
2022/10/18 02:53:43;;;;;;;11.53;7.20;;;14.90;99.90;;;;;;6137292;23;20441;-75
2022/10/18 02:56:11;;;;;;;10.93;6.70;;;14.90;99.90;;;;;;6124453;23;20918;-76
2022/10/18 02:58:38;;;;;;;9.80;7.23;;;14.80;99.90;;;;;;6119765;23;20544;-77
2022/10/18 03:01:05;;;;;;;6.97;6.20;;;14.80;99.90;;;;;;6121512;23;20472;-76
2022/10/18 03:03:34;;;;;;;7.83;7.10;;;14.80;99.90;;;;;;6116727;23;20452;-76
2022/10/18 03:06:01;;;;;;;7.47;6.10;;;14.90;99.90;;;;;;6110586;23;20930;-76
2022/10/18 03:08:28;;;;;;;7.03;6.33;;;14.70;99.90;;;;;;6131024;23;20450;-76
2022/10/18 03:10:55;;;;;;;8.50;6.57;;;14.70;99.90;;;;;;6130426;23;20440;-76
2022/10/18 03:13:23;;;;;;;7.50;6.20;;;14.70;99.90;;;;;;6127935;23;21016;-76
2022/10/18 03:15:50;;;;;;;7.20;6.50;;;14.70;99.90;;;;;;6127916;23;20464;-76
2022/10/18 03:18:17;;;;;;;9.70;6.70;;;14.70;99.90;;;;;;6129312;23;20543;-76
2022/10/18 03:20:45;;;;;;;8.47;6.23;;;14.70;99.90;;;;;;6120109;23;20455;-76
2022/10/18 03:23:12;;;;;;;11.10;6.50;;;14.80;99.90;;;;;;6119065;23;20469;-76
2022/10/18 03:25:39;;;;;;;6.23;5.57;;;14.80;99.90;;;;;;6119838;23;20498;-76
2022/10/18 03:28:07;;;;;;;8.67;6.10;;;14.80;99.90;;;;;;6127495;23;20519;-76
2022/10/18 03:30:34;;;;;;;7.70;6.27;;;14.70;99.90;;;;;;6134860;23;20468;-76
2022/10/18 03:33:01;;;;;;;5.83;5.33;;;14.70;99.90;;;;;;6120349;23;20933;-76
2022/10/18 03:35:29;;;;;;;6.80;6.07;;;14.70;99.90;;;;;;6092564;23;20432;-76
2022/10/18 03:37:57;;;;;;;9.67;5.53;;;14.70;99.90;;;;;;6129074;23;20463;-76
2022/10/18 03:40:24;;;;;;;11.73;6.53;;;14.60;99.90;;;;;;6106272;23;20431;-76
2022/10/18 03:42:51;;;;;;;7.60;6.00;;;14.60;99.90;;;;;;6119832;23;20524;-76
2022/10/18 03:45:18;;;;;;;6.10;5.50;;;14.50;99.90;;;;;;6118654;23;20451;-76
2022/10/18 03:47:45;;;;;;;5.97;5.37;;;14.50;99.90;;;;;;6124745;23;20840;-76
2022/10/18 03:50:13;;;;;;;7.40;6.17;;;14.50;99.90;;;;;;6119864;23;20488;-76
2022/10/18 03:52:40;;;;;;;8.13;5.90;;;14.50;99.90;;;;;;6146215;23;20515;-76
2022/10/18 03:55:10;;;;;;;6.23;5.63;;;14.50;99.90;;;;;;6116956;23;20448;-75
2022/10/18 03:57:37;;;;;;;9.40;6.10;;;14.50;99.90;;;;;;6105662;23;20457;-76
2022/10/18 04:00:05;;;;;;;11.17;6.10;;;14.50;99.90;;;;;;6123574;23;20441;-76
2022/10/18 04:02:32;;;;;;;6.90;5.70;;;14.50;99.90;;;;;;6124070;23;20443;-75
2022/10/18 04:05:00;;;;;;;6.87;5.07;;;14.50;99.90;;;;;;6128548;23;20445;-76
2022/10/18 04:07:27;;;;;;;8.30;4.90;;;14.50;99.90;;;;;;6118213;23;20459;-74
2022/10/18 04:09:53;;;;;;;6.30;5.80;;;14.50;99.90;;;;;;6117959;23;20516;-76
2022/10/18 04:12:22;;;;;;;6.53;5.93;;;14.50;99.90;;;;;;6121578;23;20810;-77
2022/10/18 04:14:49;;;;;;;6.43;5.83;;;14.60;99.90;;;;;;6128246;23;20450;-75
2022/10/18 04:17:17;;;;;;;7.57;6.57;;;14.60;99.90;;;;;;6117660;23;20938;-76
2022/10/18 04:19:44;;;;;;;6.10;5.37;;;14.60;99.90;;;;;;6119563;23;20526;-75
2022/10/18 04:22:11;;;;;;;10.17;6.23;;;14.60;99.90;;;;;;6115891;23;20842;-76
2022/10/18 04:24:39;;;;;;;6.20;5.60;;;14.60;99.90;;;;;;6121353;23;20442;-75
2022/10/18 04:27:07;;;;;;;6.17;5.57;;;14.60;99.90;;;;;;6132610;23;20929;-75
2022/10/18 04:29:36;;;;;;;5.97;4.90;;;14.60;99.90;;;;;;6118801;23;20532;-75
2022/10/18 04:32:03;;;;;;;7.53;5.70;;;14.60;99.90;;;;;;6100616;23;20430;-75
2022/10/18 04:34:30;;;;;;;7.20;5.43;;;14.60;99.90;;;;;;6114280;23;20930;-75
2022/10/18 04:36:57;;;;;;;8.03;5.87;;;14.60;99.90;;;;;;6124305;23;20446;-76
2022/10/18 04:39:24;;;;;;;9.40;5.50;;;14.70;99.90;;;;;;6130553;23;20468;-76
2022/10/18 04:41:52;;;;;;;5.80;4.87;;;14.70;99.90;;;;;;6121054;23;20468;-76
2022/10/18 04:44:19;;;;;;;5.73;5.20;;;14.80;99.90;;;;;;6128578;23;20427;-76
2022/10/18 04:46:47;;;;;;;9.93;5.37;;;14.90;99.90;;;;;;6126239;23;20471;-76
2022/10/18 04:49:15;;;;;;;8.10;4.80;;;14.90;99.90;;;;;;6128315;23;20523;-76
2022/10/18 04:51:42;;;;;;;5.53;5.10;;;14.90;99.90;;;;;;6113873;23;20507;-76
2022/10/18 04:54:09;;;;;;;6.73;4.87;;;14.90;99.90;;;;;;6121073;23;20512;-76
2022/10/18 04:56:36;;;;;;;5.37;4.87;;;15.00;99.90;;;;;;6126477;23;20472;-76
2022/10/18 04:59:03;;;;;;;6.00;5.43;;;15.00;99.90;;;;;;6127931;23;20456;-75
2022/10/18 05:01:30;;;;;;;6.30;4.93;;;15.10;99.90;;;;;;6123882;23;20514;-76
2022/10/18 05:03:59;;;;;;;8.90;5.17;;;15.10;99.90;;;;;;6117940;23;20780;-75
2022/10/18 05:06:26;;;;;;;6.77;5.70;;;15.10;99.90;;;;;;6117564;23;20429;-76
2022/10/18 05:08:53;;;;;;;6.97;5.23;;;15.10;99.90;;;;;;6129219;23;20531;-76
2022/10/18 05:11:20;;;;;;;5.80;5.00;;;15.10;99.90;;;;;;6105870;23;20437;-76
2022/10/18 05:13:47;;;;;;;6.07;4.80;;;15.00;99.90;;;;;;6128547;23;20954;-76
2022/10/18 05:16:15;;;;;;;9.57;5.30;;;15.10;99.90;;;;;;6125936;23;20449;-76
2022/10/18 05:18:43;;;;;;;7.43;5.73;;;15.10;99.90;;;;;;6119187;23;20463;-76
2022/10/18 05:21:11;;;;;;;7.50;5.10;;;15.20;99.90;;;;;;6116696;23;21224;-76
2022/10/18 05:23:39;;;;;;;8.50;7.80;;;15.20;99.90;;;;;;6127574;23;20429;-76
2022/10/18 05:26:08;;;;;;;10.00;8.17;;;15.20;99.90;;;;;;6130595;23;20476;-75
2022/10/18 05:28:36;;;;;;;8.03;7.23;;;15.20;99.90;;;;;;6115414;23;20426;-75
2022/10/18 05:31:05;;;;;;;8.30;7.57;;;15.30;99.90;;;;;;6125452;23;20466;-76
2022/10/18 05:33:33;;;;;;;6.13;5.00;;;15.20;99.90;;;;;;6108658;23;20434;-76
2022/10/18 05:36:01;;;;;;;6.27;5.37;;;15.20;99.90;;;;;;6114819;23;20433;-76
2022/10/18 05:38:32;;;;;;;6.80;5.63;;;15.20;99.90;;;;;;6131061;23;20495;-76
2022/10/18 05:41:04;;;;;;;8.80;5.57;;;15.20;99.90;;;;;;6135947;23;20444;-76
2022/10/18 05:43:31;;;;;;;5.93;5.13;;;15.30;99.90;;;;;;6127187;23;20512;-76
2022/10/18 05:45:58;;;;;;;6.90;4.87;;;15.40;99.90;;;;;;6132601;23;20522;-75
2022/10/18 05:48:26;;;;;;;5.53;4.53;;;15.50;99.90;;;;;;6128353;23;20528;-75
2022/10/18 05:50:54;;;;;;;5.37;4.40;;;15.60;99.90;;;;;;6112343;23;20454;-76
2022/10/18 05:53:21;;;;;;;5.83;5.17;;;15.70;99.90;;;;;;6120650;23;20950;-75
2022/10/18 05:55:50;;;;;;;6.60;4.83;;;15.90;99.90;;;;;;6120573;23;20441;-76
2022/10/18 05:58:17;;;;;;;5.00;4.50;;;15.90;99.90;;;;;;6125898;23;20448;-76
2022/10/18 06:00:44;;;;;;;8.67;5.50;;;16.00;99.90;;;;;;6126675;23;20442;-76
2022/10/18 06:03:12;;;;;;;9.30;6.13;;;15.90;99.90;;;;;;6122558;23;20433;-76
2022/10/18 06:05:38;;;;;;;6.70;5.10;;;15.80;99.90;;;;;;6121050;23;20507;-76
2022/10/18 06:08:05;;;;;;;8.43;6.10;;;15.60;99.90;;;;;;6120746;23;20441;-76
2022/10/18 06:10:34;;;;;;;7.40;5.30;;;15.50;99.90;;;;;;6138012;23;20438;-76
2022/10/18 06:13:02;;;;;;;5.87;5.37;;;15.50;99.90;;;;;;6122033;23;20433;-76
2022/10/18 06:15:29;;;;;;;6.23;5.27;;;15.40;99.90;;;;;;6120445;23;20466;-75
2022/10/18 06:17:58;;;;;;;6.50;5.80;;;15.40;99.90;;;;;;6115192;23;20471;-76
2022/10/18 06:20:25;;;;;;;6.17;5.30;;;15.20;99.90;;;;;;6118972;23;20459;-76
2022/10/18 06:22:52;;;;;;;7.03;5.43;;;15.30;99.90;;;;;;6136020;23;20460;-75
2022/10/18 06:25:20;;;;;;;5.60;4.97;;;15.20;99.90;;;;;;6143249;23;20525;-75
2022/10/18 06:27:47;;;;;;;7.07;5.20;;;15.20;99.90;;;;;;6123850;23;20926;-76
2022/10/18 06:30:15;;;;;;;6.80;5.50;;;15.30;99.90;;;;;;6121818;23;20452;-76
2022/10/18 06:32:43;;;;;;;5.63;4.27;;;15.50;99.90;;;;;;6124703;23;20510;-76
2022/10/18 06:35:10;;;;;;;6.70;4.70;;;15.50;99.90;;;;;;6112469;23;20521;-76
2022/10/18 06:37:37;;;;;;;6.10;5.23;;;15.60;99.90;;;;;;6119933;23;20446;-76
2022/10/18 06:40:05;;;;;;;5.37;4.83;;;15.80;99.90;;;;;;6129818;23;20939;-76
2022/10/18 06:42:32;;;;;;;8.60;5.00;;;15.80;99.90;;;;;;6129969;23;20429;-76
2022/10/18 06:45:00;;;;;;;5.77;5.20;;;15.90;99.90;;;;;;6119533;23;20554;-76
2022/10/18 06:47:29;;;;;;;9.63;5.47;;;16.00;99.90;;;;;;6123120;23;20441;-76
2022/10/18 06:49:56;;;;;;;6.37;5.13;;;16.20;99.90;;;;;;6127698;23;20438;-76
2022/10/18 06:52:24;;;;;;;7.47;5.00;;;16.10;99.90;;;;;;6126003;23;20772;-75
2022/10/18 06:54:52;;;;;;;5.57;4.97;;;16.10;99.90;;;;;;6126966;23;20460;-75
2022/10/18 06:57:20;;;;;;;6.03;5.40;;;16.10;99.90;;;;;;6120112;23;20430;-75
2022/10/18 06:59:48;;;;;;;7.10;5.40;;;16.20;99.90;;;;;;6119891;23;20456;-76
2022/10/18 07:02:16;;;;;;;6.60;5.57;;;16.20;99.90;;;;;;6129830;23;20491;-75
2022/10/18 07:04:45;;;;;;;7.00;5.43;;;16.20;99.90;;;;;;6138053;23;20433;-75
2022/10/18 07:07:12;;;;;;;5.77;4.70;;;16.20;99.90;;;;;;6131461;23;20940;-76
2022/10/18 07:09:40;;;;;;;7.60;5.17;;;16.20;99.90;;;;;;6118531;23;20494;-76
2022/10/18 07:12:07;;;;;;;4.93;4.43;;;16.40;99.90;;;;;;6112743;23;20446;-76
2022/10/18 07:14:34;;;;;;;5.23;3.80;;;16.50;99.90;;;;;;6124812;23;20875;-75
2022/10/18 07:17:01;;;;;;;4.50;3.77;;;16.60;99.90;;;;;;6126957;23;20467;-75
2022/10/18 07:19:29;;;;;;;3.77;3.43;;;16.80;99.90;;;;;;6104607;23;20452;-75
2022/10/18 07:21:57;;;;;;;7.03;4.13;;;17.10;99.90;;;;;;6138855;23;20432;-76
2022/10/18 07:24:25;;;;;;;4.47;3.83;;;17.20;99.90;;;;;;6130049;23;20448;-75
2022/10/18 07:26:52;;;;;;;4.10;3.63;;;17.40;99.90;;;;;;6135792;23;20457;-75
2022/10/18 07:29:19;;;;;;;4.80;3.80;;;17.60;99.90;;;;;;6122210;23;20906;-76
2022/10/18 07:31:46;;;;;;;4.00;3.60;;;17.70;99.90;;;;;;6136098;23;20440;-76
2022/10/18 07:34:13;;;;;;;3.93;3.53;;;17.80;99.90;;;;;;6140676;23;20460;-76
2022/10/18 07:36:41;;;;;;;4.23;3.80;;;17.90;99.90;;;;;;6114058;23;20516;-75
2022/10/18 07:39:10;;;;;;;4.30;3.90;;;18.00;99.90;;;;;;6133231;23;20967;-76
2022/10/18 07:41:38;;;;;;;5.70;3.90;;;18.00;99.90;;;;;;6120273;23;20438;-76
2022/10/18 07:44:05;;;;;;;4.73;4.03;;;18.10;99.90;;;;;;6124880;23;20528;-75
2022/10/18 07:46:33;;;;;;;4.70;4.20;;;18.20;99.90;;;;;;6123243;23;20575;-76
2022/10/18 07:49:00;;;;;;;3.93;3.40;;;18.20;99.90;;;;;;6132186;23;20453;-76
2022/10/18 07:51:29;;;;;;;4.63;4.03;;;18.30;99.90;;;;;;6130672;23;20469;-75
2022/10/18 07:53:57;;;;;;;4.37;3.97;;;18.40;99.90;;;;;;6121095;23;20462;-76
2022/10/18 07:56:25;;;;;;;6.10;3.60;;;18.40;99.90;;;;;;6108923;23;21033;-76
2022/10/18 07:58:55;;;;;;;4.90;4.10;;;18.50;99.90;;;;;;6119114;23;20542;-76
2022/10/18 08:01:24;;;;;;;10.00;4.37;;;18.60;99.90;;;;;;6128058;23;20535;-76
2022/10/18 08:03:51;;;;;;;8.87;3.97;;;18.60;99.90;;;;;;6119538;23;20834;-75
2022/10/18 08:06:20;;;;;;;5.63;3.50;;;18.70;99.90;;;;;;6122288;23;20463;-75
2022/10/18 08:08:48;;;;;;;5.80;4.10;;;18.70;99.90;;;;;;6097843;23;20449;-76
2022/10/18 08:11:17;;;;;;;5.73;3.90;;;18.80;99.90;;;;;;6129598;23;20830;-75
2022/10/18 08:13:46;;;;;;;5.10;3.67;;;18.90;99.90;;;;;;6122051;23;20438;-76
2022/10/18 08:16:16;;;;;;;4.80;4.07;;;18.90;99.90;;;;;;6126518;23;20503;-76
2022/10/18 08:18:43;;;;;;;4.97;3.53;;;18.90;99.90;;;;;;6121259;23;20463;-76
2022/10/18 08:21:12;;;;;;;4.33;3.93;;;19.00;99.90;;;;;;6132625;23;20791;-75
2022/10/18 08:23:39;;;;;;;3.90;3.40;;;19.10;99.90;;;;;;6128790;23;20516;-76
2022/10/18 08:26:09;;;;;;;4.90;4.50;;;19.20;99.90;;;;;;6125291;23;20482;-76
2022/10/18 08:28:36;;;;;;;4.10;3.80;;;19.20;99.90;;;;;;6129478;23;20596;-76
2022/10/18 08:31:05;;;;;;;4.13;3.60;;;19.20;99.90;;;;;;6119579;23;20479;-76
2022/10/18 08:33:34;;;;;;;4.60;4.30;;;19.30;99.90;;;;;;6113294;23;20435;-76
2022/10/18 08:36:05;;;;;;;5.13;3.83;;;19.30;99.90;;;;;;6112683;23;20770;-76
2022/10/18 08:38:33;;;;;;;4.50;4.03;;;19.40;99.90;;;;;;6124090;23;20815;-76
2022/10/18 08:41:02;;;;;;;4.97;3.43;;;19.40;99.90;;;;;;6113356;23;20437;-76
2022/10/18 08:43:36;;;;;;;4.83;3.60;;;19.40;99.90;;;;;;6114885;23;20433;-76
2022/10/18 08:46:05;;;;;;;3.80;3.50;;;19.40;99.90;;;;;;6124785;23;21017;-76
2022/10/18 08:48:37;;;;;;;3.67;3.37;;;19.40;99.90;;;;;;6122489;23;20428;-76
2022/10/18 08:51:18;;;;;;;4.07;3.67;;;19.50;99.90;;;;;;6123525;23;20949;-76
2022/10/18 08:53:51;;;;;;;4.63;3.83;;;19.50;99.90;;;;;;6105618;23;20831;-76
2022/10/18 08:56:23;;;;;;;4.50;3.90;;;19.70;99.90;;;;;;6121986;23;20957;-76
2022/10/18 08:58:50;;;;;;;5.10;4.57;;;19.80;99.90;;;;;;6128605;23;20460;-76
2022/10/18 09:01:33;;;;;;;25.83;7.00;;;20.00;99.90;;;;;;6126459;23;20460;-76
2022/10/18 09:04:15;;;;;;;4.27;3.73;;;20.20;99.90;;;;;;6139233;23;20440;-76
2022/10/18 09:06:48;;;;;;;6.27;4.67;;;20.40;99.90;;;;;;6135277;23;20485;-76
2022/10/18 09:09:34;;;;;;;4.37;3.97;;;20.50;99.90;;;;;;6122389;23;20490;-76
2022/10/18 09:12:13;;;;;;;4.77;4.23;;;20.70;99.90;;;;;;6108236;23;20507;-77
2022/10/18 09:15:08;;;;;;;4.20;3.90;;;21.00;99.90;;;;;;6102188;23;20461;-76
2022/10/18 09:17:48;;;;;;;5.17;4.50;;;21.50;99.90;;;;;;6124603;23;20552;-76
2022/10/18 09:20:22;;;;;;;4.50;3.33;;;22.10;99.90;;;;;;6135036;23;20467;-76
2022/10/18 09:22:54;;;;;;;4.27;3.53;;;22.60;99.90;;;;;;6140328;23;20984;-77
2022/10/18 09:25:24;;;;;;;4.27;3.80;;;22.90;99.90;;;;;;6143046;23;20429;-76
2022/10/18 09:27:54;;;;;;;3.97;3.67;;;22.80;99.90;;;;;;6127820;23;20433;-76
2022/10/18 09:30:40;;;;;;;4.53;3.80;;;22.50;99.90;;;;;;6125020;23;20845;-76
2022/10/18 09:33:31;;;;;;;7.17;3.63;;;22.30;99.90;;;;;;6109210;23;20803;-76
2022/10/18 09:36:01;;;;;;;5.27;3.93;;;22.10;99.90;;;;;;6112927;23;20443;-75
2022/10/18 09:38:32;;;;;;;7.50;3.53;;;22.10;99.90;;;;;;6124624;23;20426;-77
2022/10/18 09:41:04;;;;;;;4.23;3.83;;;22.10;99.90;;;;;;6128555;23;20450;-76
2022/10/18 09:43:42;;;;;;;6.30;4.00;;;22.10;99.90;;;;;;6140699;23;20484;-76
2022/10/18 09:46:10;;;;;;;4.17;3.87;;;22.00;99.90;;;;;;6129409;23;20466;-77
2022/10/18 09:48:45;;;;;;;4.03;3.73;;;22.00;99.90;;;;;;6120291;23;20443;-76
2022/10/18 09:51:20;;;;;;;4.40;3.90;;;22.10;99.90;;;;;;6132595;23;20439;-76
2022/10/18 09:54:17;;;;;;;4.37;4.00;;;22.20;99.90;;;;;;6130697;23;21108;-76
2022/10/18 09:56:49;;;;;;;4.93;4.50;;;22.20;99.90;;;;;;6096382;23;20443;-77
2022/10/18 09:59:31;;;;;;;4.10;3.80;;;22.40;99.90;;;;;;6111599;23;20463;-77
2022/10/18 10:01:58;;;;;;;4.23;3.73;;;22.90;99.90;;;;;;6113211;23;20437;-77
2022/10/18 10:04:27;;;;;;;6.70;3.90;;;23.80;99.90;;;;;;6126350;23;20457;-77
2022/10/18 10:06:57;;;;;;;4.77;3.60;;;24.90;99.90;;;;;;6136307;23;20491;-76
2022/10/18 10:09:28;;;;;;;5.00;4.00;;;25.60;99.90;;;;;;6119651;23;20445;-77
2022/10/18 10:11:56;;;;;;;5.13;4.47;;;26.40;99.90;;;;;;6111580;23;20437;-77
2022/10/18 10:14:24;;;;;;;4.63;3.80;;;26.80;99.90;;;;;;6127253;23;20456;-76
2022/10/18 10:16:53;;;;;;;6.10;4.03;;;27.30;99.90;;;;;;6119743;23;20445;-76
2022/10/18 10:19:24;;;;;;;7.83;3.97;;;27.70;99.90;;;;;;6124326;23;20634;-76
2022/10/18 10:22:05;;;;;;;6.33;4.00;;;27.90;99.90;;;;;;6126266;23;20455;-76
2022/10/18 10:24:48;;;;;;;3.67;3.27;;;28.00;99.90;;;;;;6127016;23;20448;-76
2022/10/18 10:27:19;;;;;;;4.67;3.30;;;28.00;99.90;;;;;;6118403;23;20934;-76
2022/10/18 10:29:58;;;;;;;4.07;3.43;;;28.10;99.90;;;;;;6132355;23;20436;-76
2022/10/18 10:32:29;;;;;;;8.07;3.50;;;28.00;99.90;;;;;;6116681;23;20483;-77
2022/10/18 10:34:57;;;;;;;4.20;3.20;;;27.90;99.90;;;;;;6119148;23;20479;-77
2022/10/18 10:37:40;;;;;;;3.57;3.23;;;27.80;99.90;;;;;;6117429;23;20583;-76
2022/10/18 10:40:17;;;;;;;7.30;3.27;;;27.60;99.90;;;;;;6139253;23;20756;-76
2022/10/18 10:43:04;;;;;;;5.43;3.57;;;27.60;99.90;;;;;;6120905;23;20433;-76
2022/10/18 10:45:34;;;;;;;3.63;3.30;;;27.20;99.90;;;;;;6119622;23;20847;-76
2022/10/18 10:48:06;;;;;;;3.80;3.33;;;27.00;99.90;;;;;;6121158;23;20475;-77
2022/10/18 10:50:50;;;;;;;3.13;2.63;;;26.80;99.90;;;;;;6112866;23;20540;-76
2022/10/18 10:53:44;;;;;;;6.00;3.10;;;26.90;99.90;;;;;;6123216;23;20433;-76
2022/10/18 10:56:20;;;;;;;7.50;3.47;;;27.00;99.90;;;;;;6132836;23;20970;-76
2022/10/18 10:58:48;;;;;;;5.03;3.43;;;27.20;99.90;;;;;;6132516;23;20503;-76
2022/10/18 11:01:22;;;;;;;8.17;4.00;;;27.40;99.90;;;;;;6113365;23;21495;-76
2022/10/18 11:03:51;;;;;;;3.37;3.07;;;27.70;99.90;;;;;;6109644;23;20437;-76
2022/10/18 11:06:46;;;;;;;4.13;3.10;;;27.40;99.90;;;;;;6095859;23;20502;-74
2022/10/18 11:09:35;;;;;;;4.10;2.80;;;27.50;99.90;;;;;;6119421;23;20806;-74
2022/10/18 11:12:10;;;;;;;3.40;2.73;;;27.90;99.90;;;;;;6116855;23;20516;-74
2022/10/18 11:14:41;;;;;;;3.17;2.80;;;28.10;99.90;;;;;;6127371;23;20503;-74
2022/10/18 11:17:17;;;;;;;3.73;3.43;;;28.20;99.90;;;;;;6115921;23;20445;-74
2022/10/18 11:20:02;;;;;;;3.40;2.60;;;28.30;99.90;;;;;;6129422;23;20465;-74
2022/10/18 11:22:34;;;;;;;6.80;3.10;;;28.30;99.90;;;;;;6115226;23;20440;-74
2022/10/18 11:25:03;;;;;;;6.10;2.90;;;28.00;99.90;;;;;;6126319;23;20429;-74
2022/10/18 11:27:36;;;;;;;3.60;2.57;;;27.70;99.90;;;;;;6119282;23;20512;-74
2022/10/18 11:30:32;;;;;;;3.30;2.93;;;27.10;99.90;;;;;;6124508;23;20463;-74
2022/10/18 11:33:07;;;;;;;3.37;2.90;;;26.40;99.90;;;;;;6126213;23;20433;-74
2022/10/18 11:35:44;;;;;;;3.30;2.80;;;26.00;99.90;;;;;;6122046;23;20828;-74
2022/10/18 11:38:37;;;;;;;2.90;2.70;;;25.70;99.90;;;;;;6118598;23;20437;-74
2022/10/18 11:41:34;;;;;;;4.10;2.77;;;25.30;99.90;;;;;;6120822;23;21383;-74
2022/10/18 11:44:10;;;;;;;3.37;3.00;;;25.00;99.90;;;;;;6104280;23;20469;-73
2022/10/18 11:46:47;;;;;;;3.30;3.00;;;24.80;99.90;;;;;;6112724;23;20519;-73
2022/10/18 11:49:46;;;;;;;3.20;2.90;;;25.00;99.90;;;;;;6126443;23;20430;-74
2022/10/18 11:52:20;;;;;;;4.77;2.90;;;25.30;99.90;;;;;;6111798;23;20867;-74
2022/10/18 11:55:00;;;;;;;2.97;2.67;;;25.70;99.90;;;;;;6115209;23;20927;-74
2022/10/18 11:57:43;;;;;;;4.60;2.80;;;26.00;99.90;;;;;;6138106;23;20482;-74
2022/10/18 12:00:24;;;;;;;3.43;3.13;;;26.30;99.90;;;;;;6113412;23;20456;-74
2022/10/18 12:03:04;;;;;;;4.77;3.10;;;26.40;99.90;;;;;;6122903;23;21170;-74
2022/10/18 12:05:33;;;;;;;3.37;3.00;;;26.20;99.90;;;;;;6114625;23;20433;-74
2022/10/18 12:08:05;;;;;;;5.40;3.27;;;25.80;99.90;;;;;;6123251;23;20463;-72
2022/10/18 12:10:35;;;;;;;3.53;3.23;;;25.40;99.90;;;;;;6122607;23;21001;-74
2022/10/18 12:13:07;;;;;;;4.10;3.70;;;25.10;99.90;;;;;;6108163;23;20934;-78
2022/10/18 12:15:40;;;;;;;3.93;3.60;;;24.80;99.90;;;;;;6114218;23;20437;-77
2022/10/18 12:18:13;;;;;;;3.83;3.53;;;24.60;99.90;;;;;;6109719;23;20527;-76
2022/10/18 12:20:48;;;;;;;3.83;3.50;;;24.40;99.90;;;;;;6095754;23;20462;-76
2022/10/18 12:23:20;;;;;;;4.73;3.57;;;24.20;99.90;;;;;;6114080;23;20441;-76
2022/10/18 12:25:53;;;;;;;5.40;3.50;;;24.00;99.90;;;;;;6119217;23;20509;-76
2022/10/18 12:28:38;;;;;;;3.10;2.90;;;23.80;99.90;;;;;;6122601;23;20429;-76
2022/10/18 12:31:17;;;;;;;3.17;2.97;;;23.60;99.90;;;;;;6121676;23;20509;-76
2022/10/18 12:33:48;;;;;;;2.93;2.73;;;23.50;99.90;;;;;;6119497;23;20493;-76
2022/10/18 12:36:33;;;;;;;5.43;3.40;;;23.60;99.90;;;;;;6136661;23;20521;-77
2022/10/18 12:39:03;;;;;;;4.77;2.93;;;24.00;99.90;;;;;;6129455;23;20469;-76
2022/10/18 12:41:32;;;;;;;4.10;2.67;;;24.30;99.90;;;;;;6114292;23;20788;-76
2022/10/18 12:44:04;;;;;;;5.53;3.63;;;24.60;99.90;;;;;;6139441;23;20988;-77
2022/10/18 12:46:48;;;;;;;3.33;3.00;;;25.00;99.90;;;;;;6120950;23;20433;-77
2022/10/18 12:49:21;;;;;;;3.63;3.33;;;25.30;99.90;;;;;;6116404;23;20437;-76
2022/10/18 12:51:54;;;;;;;3.07;2.77;;;25.40;99.90;;;;;;6133578;23;20550;-76
2022/10/18 12:54:26;;;;;;;5.00;3.10;;;25.40;99.90;;;;;;6121762;23;20503;-76
2022/10/18 12:56:53;;;;;;;3.77;2.70;;;25.50;99.90;;;;;;6105872;23;20453;-76
2022/10/18 12:59:52;;;;;;;2.87;2.40;;;25.80;99.90;;;;;;6125467;23;20429;-77
2022/10/18 13:02:31;;;;;;;3.17;2.43;;;25.60;99.90;;;;;;6120001;23;20456;-76
2022/10/18 13:05:00;;;;;;;2.83;2.10;;;25.10;99.90;;;;;;6093806;23;20441;-76
2022/10/18 13:07:41;;;;;;;3.30;3.00;;;25.00;99.90;;;;;;6119158;23;20448;-76